createdAt,value
2016-12-18T00:00:07.934Z,4.1
2016-12-18T00:01:13.958Z,4
2016-12-18T00:02:19.978Z,4
2016-12-18T00:03:25.996Z,4
2016-12-18T00:04:32.023Z,4
2016-12-18T00:05:38.036Z,4.1
2016-12-18T00:06:44.051Z,4
2016-12-18T00:07:50.070Z,4.1
2016-12-18T00:08:56.092Z,4.1
2016-12-18T00:10:02.105Z,4.2
2016-12-18T00:11:08.128Z,4.1
2016-12-18T00:12:14.156Z,4.2
2016-12-18T00:13:20.174Z,4.3
2016-12-18T00:14:26.190Z,4.2
2016-12-18T00:15:32.211Z,4.3
2016-12-18T00:16:38.235Z,4.3
2016-12-18T00:17:44.251Z,4.3
2016-12-18T00:18:50.263Z,4.3
2016-12-18T00:19:56.284Z,4.4
2016-12-18T00:21:02.301Z,4.4
2016-12-18T00:22:08.327Z,4.4
2016-12-18T00:23:14.342Z,4.5
2016-12-18T00:24:20.358Z,4.5
2016-12-18T00:25:26.372Z,4.6
2016-12-18T00:26:32.398Z,4.6
2016-12-18T00:27:38.414Z,4.6
2016-12-18T00:28:44.435Z,4.6
2016-12-18T00:29:50.463Z,4.5
2016-12-18T00:30:56.490Z,4.5
2016-12-18T00:32:02.505Z,4.5
2016-12-18T00:33:08.525Z,4.5
2016-12-18T00:34:14.542Z,4.5
2016-12-18T00:35:20.560Z,4.5
2016-12-18T00:36:26.582Z,4.5
2016-12-18T00:37:32.602Z,4.5
2016-12-18T00:38:38.623Z,4.5
2016-12-18T00:39:44.637Z,4.6
2016-12-18T00:40:50.659Z,4.6
2016-12-18T00:41:56.684Z,4.6
2016-12-18T00:43:02.710Z,4.6
2016-12-18T00:44:08.723Z,4.7
2016-12-18T00:45:14.749Z,4.6
2016-12-18T00:46:20.758Z,4.7
2016-12-18T00:47:26.775Z,4.6
2016-12-18T00:48:32.792Z,4.6
2016-12-18T00:49:38.821Z,4.7
2016-12-18T00:50:44.833Z,4.7
2016-12-18T00:51:50.852Z,4.8
2016-12-18T00:52:56.875Z,4.8
2016-12-18T00:54:02.902Z,4.8
2016-12-18T00:55:08.916Z,4.8
2016-12-18T00:56:14.936Z,4.8
2016-12-18T00:57:20.959Z,4.8
2016-12-18T00:58:26.968Z,4.8
2016-12-18T00:59:32.991Z,4.8
2016-12-18T01:00:39.014Z,4.8
2016-12-18T01:01:45.035Z,4.8
2016-12-18T01:02:51.060Z,4.8
2016-12-18T01:03:57.088Z,4.9
2016-12-18T01:05:03.107Z,4.9
2016-12-18T01:06:09.115Z,4.9
2016-12-18T01:07:15.129Z,4.9
2016-12-18T01:08:21.143Z,5
2016-12-18T01:09:27.161Z,5
2016-12-18T01:10:33.186Z,4.9
2016-12-18T01:11:39.216Z,4.9
2016-12-18T01:12:45.226Z,5
2016-12-18T01:13:51.247Z,5
2016-12-18T01:14:57.268Z,5
2016-12-18T01:16:03.282Z,4.9
2016-12-18T01:17:09.293Z,4.9
2016-12-18T01:18:15.314Z,5
2016-12-18T01:19:21.334Z,5
2016-12-18T01:20:27.356Z,5
2016-12-18T01:21:33.377Z,5
2016-12-18T01:22:39.395Z,5
2016-12-18T01:23:45.418Z,5
2016-12-18T01:24:51.440Z,5.1
2016-12-18T01:25:57.454Z,5.1
2016-12-18T01:27:03.479Z,5.1
2016-12-18T01:28:09.494Z,5.1
2016-12-18T01:29:15.522Z,5.1
2016-12-18T01:30:21.543Z,5.1
2016-12-18T01:31:27.564Z,5.1
2016-12-18T01:32:33.586Z,5.2
2016-12-18T01:33:39.600Z,5.2
2016-12-18T01:34:45.614Z,5.2
2016-12-18T01:35:51.631Z,5.2
2016-12-18T01:36:57.655Z,5.2
2016-12-18T01:38:03.671Z,5.2
2016-12-18T01:39:09.689Z,5.3
2016-12-18T01:40:15.716Z,5.2
2016-12-18T01:41:21.738Z,5.3
2016-12-18T01:42:27.755Z,5.3
2016-12-18T01:43:33.777Z,5.3
2016-12-18T01:44:39.793Z,5.3
2016-12-18T01:45:45.813Z,5.3
2016-12-18T01:46:51.831Z,5.3
2016-12-18T01:47:57.857Z,5.3
2016-12-18T01:49:03.878Z,5.3
2016-12-18T01:50:09.902Z,5.3
2016-12-18T01:51:15.913Z,5.3
2016-12-18T01:52:21.928Z,5.3
2016-12-18T01:53:27.940Z,5.3
2016-12-18T01:54:33.968Z,5.4
2016-12-18T01:55:39.987Z,5.4
2016-12-18T01:56:46.005Z,5.4
2016-12-18T01:57:52.024Z,5.3
2016-12-18T01:58:58.053Z,5.3
2016-12-18T02:00:04.070Z,5.4
2016-12-18T02:01:10.087Z,5.4
2016-12-18T02:02:16.117Z,5.4
2016-12-18T02:03:22.128Z,5.4
2016-12-18T02:04:28.148Z,5.5
2016-12-18T02:05:34.167Z,5.5
2016-12-18T02:06:40.193Z,5.5
2016-12-18T02:07:46.205Z,5.6
2016-12-18T02:08:52.224Z,5.5
2016-12-18T02:09:58.245Z,5.6
2016-12-18T02:11:04.265Z,5.5
2016-12-18T02:12:10.277Z,5.5
2016-12-18T02:13:16.295Z,5.5
2016-12-18T02:14:22.311Z,5.6
2016-12-18T02:15:28.327Z,5.7
2016-12-18T02:16:34.340Z,5.7
2016-12-18T02:17:40.357Z,5.7
2016-12-18T02:18:46.382Z,5.7
2016-12-18T02:19:52.393Z,5.8
2016-12-18T02:20:58.419Z,5.8
2016-12-18T02:22:04.443Z,5.7
2016-12-18T02:23:10.464Z,5.7
2016-12-18T02:24:16.481Z,5.7
2016-12-18T02:25:22.506Z,5.6
2016-12-18T02:26:28.524Z,5.7
2016-12-18T02:27:34.537Z,5.7
2016-12-18T02:28:40.548Z,5.7
2016-12-18T02:29:46.574Z,5.7
2016-12-18T02:30:52.596Z,5.8
2016-12-18T02:31:58.618Z,5.7
2016-12-18T02:33:04.639Z,5.7
2016-12-18T02:34:10.662Z,5.7
2016-12-18T02:35:16.686Z,5.8
2016-12-18T02:36:22.702Z,5.7
2016-12-18T02:37:28.726Z,5.8
2016-12-18T02:38:34.740Z,5.8
2016-12-18T02:39:40.755Z,5.8
2016-12-18T02:40:46.774Z,5.7
2016-12-18T02:41:52.798Z,5.6
2016-12-18T02:42:58.818Z,5.7
2016-12-18T02:44:04.836Z,5.7
2016-12-18T02:45:10.857Z,5.7
2016-12-18T02:46:16.874Z,5.7
2016-12-18T02:47:22.894Z,5.7
2016-12-18T02:48:28.908Z,5.6
2016-12-18T02:49:34.931Z,5.7
2016-12-18T02:50:40.955Z,5.7
2016-12-18T02:51:46.976Z,5.7
2016-12-18T02:52:52.993Z,5.7
2016-12-18T02:53:59.012Z,5.7
2016-12-18T02:55:05.029Z,5.7
2016-12-18T02:56:11.049Z,5.8
2016-12-18T02:57:17.069Z,5.8
2016-12-18T02:58:23.094Z,5.8
2016-12-18T02:59:29.115Z,5.7
2016-12-18T03:00:35.131Z,5.7
2016-12-18T03:01:41.147Z,5.8
2016-12-18T03:02:47.168Z,5.7
2016-12-18T03:03:53.182Z,5.7
2016-12-18T03:04:59.199Z,5.7
2016-12-18T03:06:05.216Z,5.7
2016-12-18T03:07:11.236Z,5.8
2016-12-18T03:08:17.257Z,5.9
2016-12-18T03:09:23.276Z,5.7
2016-12-18T03:10:29.290Z,5.8
2016-12-18T03:11:35.311Z,5.8
2016-12-18T03:12:41.325Z,5.7
2016-12-18T03:13:47.347Z,5.7
2016-12-18T03:14:53.364Z,5.7
2016-12-18T03:15:59.386Z,5.8
2016-12-18T03:17:05.408Z,5.8
2016-12-18T03:18:11.426Z,5.9
2016-12-18T03:19:17.495Z,5.9
2016-12-18T03:20:23.507Z,5.9
2016-12-18T03:21:29.532Z,5.9
2016-12-18T03:22:35.549Z,5.9
2016-12-18T03:23:41.573Z,5.9
2016-12-18T03:24:47.595Z,5.9
2016-12-18T03:25:53.617Z,6
2016-12-18T03:26:59.640Z,6
2016-12-18T03:28:05.660Z,6
2016-12-18T03:29:11.688Z,5.9
2016-12-18T03:30:17.723Z,5.9
2016-12-18T03:31:23.740Z,5.9
2016-12-18T03:32:29.755Z,6
2016-12-18T03:33:34.687Z,6
2016-12-18T03:34:40.699Z,6
2016-12-18T03:35:46.714Z,6
2016-12-18T03:36:52.742Z,6
2016-12-18T03:37:58.764Z,6
2016-12-18T03:39:04.775Z,6
2016-12-18T03:40:10.792Z,6
2016-12-18T03:41:16.819Z,5.9
2016-12-18T03:42:22.835Z,5.9
2016-12-18T03:43:28.856Z,5.9
2016-12-18T03:44:34.874Z,5.8
2016-12-18T03:45:40.893Z,5.9
2016-12-18T03:46:46.907Z,5.9
2016-12-18T03:47:52.932Z,5.9
2016-12-18T03:48:58.954Z,5.9
2016-12-18T03:50:04.980Z,5.9
2016-12-18T03:51:11.002Z,5.9
2016-12-18T03:52:17.008Z,6
2016-12-18T03:53:23.033Z,5.9
2016-12-18T03:54:29.050Z,5.9
2016-12-18T03:55:35.069Z,6
2016-12-18T03:56:41.080Z,6
2016-12-18T03:57:47.110Z,5.9
2016-12-18T03:58:53.128Z,5.9
2016-12-18T03:59:59.145Z,5.9
2016-12-18T04:01:05.168Z,6
2016-12-18T04:02:11.192Z,6
2016-12-18T04:03:17.208Z,6
2016-12-18T04:04:23.223Z,6
2016-12-18T04:05:29.244Z,6
2016-12-18T04:06:35.258Z,6
2016-12-18T04:07:41.271Z,6
2016-12-18T04:08:47.286Z,6.1
2016-12-18T04:09:53.307Z,5.9
2016-12-18T04:10:59.322Z,6
2016-12-18T04:12:05.337Z,6
2016-12-18T04:13:11.360Z,6
2016-12-18T04:14:17.381Z,6
2016-12-18T04:15:23.405Z,6
2016-12-18T04:16:29.416Z,6
2016-12-18T04:17:35.433Z,6
2016-12-18T04:18:41.461Z,6
2016-12-18T04:19:47.484Z,5.9
2016-12-18T04:20:53.498Z,5.9
2016-12-18T04:21:59.513Z,5.9
2016-12-18T04:23:05.534Z,6
2016-12-18T04:24:11.550Z,6
2016-12-18T04:25:17.565Z,6
2016-12-18T04:26:23.578Z,6.1
2016-12-18T04:27:29.598Z,6
2016-12-18T04:28:35.616Z,6.1
2016-12-18T04:29:41.641Z,6.1
2016-12-18T04:30:47.664Z,6.1
2016-12-18T04:31:53.685Z,6.2
2016-12-18T04:32:59.710Z,6.1
2016-12-18T04:34:05.732Z,6.2
2016-12-18T04:35:11.750Z,6.2
2016-12-18T04:36:17.772Z,6.2
2016-12-18T04:37:23.792Z,6.2
2016-12-18T04:38:29.817Z,6.3
2016-12-18T04:39:35.841Z,6.2
2016-12-18T04:40:41.858Z,6.2
2016-12-18T04:41:47.874Z,6.1
2016-12-18T04:42:53.890Z,6.2
2016-12-18T04:43:59.911Z,6.2
2016-12-18T04:45:05.927Z,6.1
2016-12-18T04:46:11.942Z,6.2
2016-12-18T04:47:17.962Z,6.3
2016-12-18T04:48:23.988Z,6.3
2016-12-18T04:49:30.006Z,6.3
2016-12-18T04:50:36.022Z,6.3
2016-12-18T04:51:42.043Z,6.3
2016-12-18T04:52:48.054Z,6.3
2016-12-18T04:53:54.067Z,6.2
2016-12-18T04:55:00.084Z,6.2
2016-12-18T04:56:06.103Z,6.1
2016-12-18T04:57:12.121Z,6.2
2016-12-18T04:58:18.136Z,6.3
2016-12-18T04:59:24.161Z,6.3
2016-12-18T05:00:30.179Z,6.3
2016-12-18T05:01:36.211Z,6.3
2016-12-18T05:02:42.220Z,6.3
2016-12-18T05:03:48.237Z,6.3
2016-12-18T05:04:54.264Z,6.2
2016-12-18T05:06:00.287Z,6.3
2016-12-18T05:07:06.305Z,6.2
2016-12-18T05:08:12.324Z,6.2
2016-12-18T05:09:18.353Z,6.1
2016-12-18T05:10:24.364Z,6.2
2016-12-18T05:11:30.382Z,6.3
2016-12-18T05:12:36.399Z,6.3
2016-12-18T05:13:42.427Z,6.3
2016-12-18T05:14:48.443Z,6.3
2016-12-18T05:15:54.461Z,6.3
2016-12-18T05:17:00.483Z,6.3
2016-12-18T05:18:06.507Z,6.3
2016-12-18T05:19:12.518Z,6.3
2016-12-18T05:20:18.587Z,6.3
2016-12-18T05:21:24.607Z,6.3
2016-12-18T05:22:30.616Z,6.2
2016-12-18T05:23:36.631Z,6.3
2016-12-18T05:24:42.655Z,6.3
2016-12-18T05:25:48.674Z,6.3
2016-12-18T05:26:54.692Z,6.3
2016-12-18T05:28:00.709Z,6.3
2016-12-18T05:29:06.730Z,6.3
2016-12-18T05:30:12.753Z,6.3
2016-12-18T05:31:18.775Z,6.3
2016-12-18T05:32:24.792Z,6.2
2016-12-18T05:33:30.819Z,6.3
2016-12-18T05:34:36.840Z,6.3
2016-12-18T05:35:42.857Z,6.4
2016-12-18T05:36:48.881Z,6.4
2016-12-18T05:37:54.903Z,6.3
2016-12-18T05:39:00.917Z,6.2
2016-12-18T05:40:06.936Z,6.2
2016-12-18T05:41:12.956Z,6.2
2016-12-18T05:42:18.983Z,6.2
2016-12-18T05:43:24.993Z,6.3
2016-12-18T05:44:31.016Z,6.3
2016-12-18T05:45:37.036Z,6.2
2016-12-18T05:46:43.054Z,6.3
2016-12-18T05:47:49.069Z,6.3
2016-12-18T05:48:55.089Z,6.3
2016-12-18T05:50:01.111Z,6.2
2016-12-18T05:51:07.132Z,6.2
2016-12-18T05:52:13.149Z,6.2
2016-12-18T05:53:19.162Z,6.3
2016-12-18T05:54:25.179Z,6.2
2016-12-18T05:55:31.194Z,6.3
2016-12-18T05:56:37.207Z,6.4
2016-12-18T05:57:43.230Z,6.4
2016-12-18T05:58:49.248Z,6.4
2016-12-18T05:59:55.274Z,6.3
2016-12-18T06:01:01.292Z,6.3
2016-12-18T06:02:07.317Z,6.4
2016-12-18T06:03:13.341Z,6.3
2016-12-18T06:04:19.352Z,6.3
2016-12-18T06:05:25.369Z,6.3
2016-12-18T06:06:31.384Z,6.3
2016-12-18T06:07:37.409Z,6.3
2016-12-18T06:08:43.427Z,6.4
2016-12-18T06:09:49.448Z,6.3
2016-12-18T06:10:55.470Z,6.4
2016-12-18T06:12:01.491Z,6.4
2016-12-18T06:13:07.509Z,6.4
2016-12-18T06:14:13.525Z,6.3
2016-12-18T06:15:19.544Z,6.3
2016-12-18T06:16:25.565Z,6.3
2016-12-18T06:17:31.580Z,6.3
2016-12-18T06:18:37.604Z,6.3
2016-12-18T06:19:43.625Z,6.3
2016-12-18T06:20:49.696Z,6.4
2016-12-18T06:21:55.711Z,6.4
2016-12-18T06:23:01.727Z,6.4
2016-12-18T06:24:07.749Z,6.3
2016-12-18T06:25:13.764Z,6.3
2016-12-18T06:26:19.782Z,6.3
2016-12-18T06:27:25.804Z,6.4
2016-12-18T06:28:31.828Z,6.3
2016-12-18T06:29:37.843Z,6.3
2016-12-18T06:30:43.865Z,6.3
2016-12-18T06:31:49.891Z,6.3
2016-12-18T06:32:55.905Z,6.4
2016-12-18T06:34:01.915Z,6.4
2016-12-18T06:35:07.934Z,6.4
2016-12-18T06:36:13.982Z,6.4
2016-12-18T06:37:20.006Z,6.3
2016-12-18T06:38:26.023Z,6.4
2016-12-18T06:39:32.047Z,6.4
2016-12-18T06:40:38.072Z,6.4
2016-12-18T06:41:44.100Z,6.4
2016-12-18T06:42:50.108Z,6.4
2016-12-18T06:43:56.127Z,6.5
2016-12-18T06:45:02.147Z,6.4
2016-12-18T06:46:08.174Z,6.4
2016-12-18T06:47:14.190Z,6.4
2016-12-18T06:48:20.212Z,6.4
2016-12-18T06:49:26.238Z,6.3
2016-12-18T06:50:32.250Z,6.3
2016-12-18T06:51:38.266Z,6.4
2016-12-18T06:52:44.892Z,6.4
2016-12-18T06:53:51.633Z,6.4
2016-12-18T06:54:57.644Z,6.4
2016-12-18T06:56:03.673Z,6.5
2016-12-18T06:57:09.698Z,6.5
2016-12-18T06:58:15.763Z,6.5
2016-12-18T06:59:21.749Z,6.4
2016-12-18T07:00:27.772Z,6.4
2016-12-18T07:01:33.795Z,6.3
2016-12-18T07:02:39.805Z,6.4
2016-12-18T07:03:45.823Z,6.5
2016-12-18T07:04:51.838Z,6.4
2016-12-18T07:05:57.863Z,6.5
2016-12-18T07:07:03.886Z,6.5
2016-12-18T07:08:09.900Z,6.6
2016-12-18T07:09:15.919Z,6.6
2016-12-18T07:10:21.938Z,6.6
2016-12-18T07:11:27.955Z,6.6
2016-12-18T07:12:33.976Z,6.5
2016-12-18T07:13:40.000Z,6.5
2016-12-18T07:14:46.018Z,6.5
2016-12-18T07:15:52.035Z,6.5
2016-12-18T07:16:58.059Z,6.5
2016-12-18T07:18:03.333Z,6.5
2016-12-18T07:19:09.349Z,6.5
2016-12-18T07:20:15.375Z,6.6
2016-12-18T07:21:21.448Z,6.6
2016-12-18T07:22:27.471Z,6.6
2016-12-18T07:23:33.486Z,6.6
2016-12-18T07:24:39.507Z,6.6
2016-12-18T07:25:45.529Z,6.6
2016-12-18T07:26:51.551Z,6.7
2016-12-18T07:27:57.572Z,6.5
2016-12-18T07:29:03.594Z,6.6
2016-12-18T07:30:09.610Z,6.6
2016-12-18T07:31:15.632Z,6.6
2016-12-18T07:32:21.647Z,6.6
2016-12-18T07:33:27.670Z,6.6
2016-12-18T07:34:33.687Z,6.6
2016-12-18T07:35:39.706Z,6.6
2016-12-18T07:36:45.724Z,6.7
2016-12-18T07:37:51.744Z,6.7
2016-12-18T07:38:57.769Z,6.7
2016-12-18T07:40:03.790Z,6.6
2016-12-18T07:41:09.807Z,6.6
2016-12-18T07:42:15.831Z,6.6
2016-12-18T07:43:21.844Z,6.7
2016-12-18T07:44:27.858Z,6.9
2016-12-18T07:45:33.872Z,6.9
2016-12-18T07:46:39.892Z,6.9
2016-12-18T07:47:45.905Z,6.8
2016-12-18T07:48:51.923Z,6.8
2016-12-18T07:49:57.943Z,6.9
2016-12-18T07:51:03.963Z,6.8
2016-12-18T07:52:09.983Z,6.8
2016-12-18T07:53:16.003Z,6.8
2016-12-18T07:54:22.024Z,6.8
2016-12-18T07:55:28.047Z,6.8
2016-12-18T07:56:34.064Z,6.8
2016-12-18T07:57:40.081Z,6.9
2016-12-18T07:58:46.102Z,6.9
2016-12-18T07:59:52.123Z,6.8
2016-12-18T08:00:58.142Z,6.8
2016-12-18T08:02:04.156Z,6.8
2016-12-18T08:03:10.176Z,6.7
2016-12-18T08:04:16.198Z,6.7
2016-12-18T08:05:22.213Z,6.8
2016-12-18T08:06:28.240Z,6.6
2016-12-18T08:07:34.259Z,6.7
2016-12-18T08:08:40.279Z,6.8
2016-12-18T08:09:46.296Z,6.9
2016-12-18T08:10:52.411Z,6.9
2016-12-18T08:11:58.431Z,6.9
2016-12-18T08:13:04.454Z,6.9
2016-12-18T08:14:10.480Z,6.8
2016-12-18T08:15:16.502Z,6.8
2016-12-18T08:16:22.519Z,6.9
2016-12-18T08:17:28.541Z,6.9
2016-12-18T08:18:34.560Z,6.9
2016-12-18T08:19:40.587Z,6.9
2016-12-18T08:20:46.603Z,6.8
2016-12-18T08:21:52.670Z,6.8
2016-12-18T08:22:58.682Z,6.8
2016-12-18T08:24:04.704Z,6.8
2016-12-18T08:25:10.745Z,6.9
2016-12-18T08:26:16.755Z,6.9
2016-12-18T08:27:22.769Z,6.9
2016-12-18T08:28:28.794Z,6.9
2016-12-18T08:29:34.830Z,6.9
2016-12-18T08:30:40.844Z,6.9
2016-12-18T08:31:46.851Z,6.9
2016-12-18T08:32:52.928Z,6.9
2016-12-18T08:33:58.955Z,6.9
2016-12-18T08:35:04.977Z,7
2016-12-18T08:36:10.995Z,6.9
2016-12-18T08:37:17.010Z,6.9
2016-12-18T08:38:23.029Z,6.9
2016-12-18T08:39:29.050Z,7
2016-12-18T08:40:35.066Z,7
2016-12-18T08:41:41.080Z,7.1
2016-12-18T08:42:47.109Z,7.1
2016-12-18T08:43:53.131Z,7
2016-12-18T08:44:59.146Z,7.1
2016-12-18T08:46:05.161Z,7.1
2016-12-18T08:47:11.177Z,7.1
2016-12-18T08:48:17.198Z,7
2016-12-18T08:49:23.216Z,7.1
2016-12-18T08:50:29.411Z,7.1
2016-12-18T08:51:35.312Z,7.1
2016-12-18T08:52:41.333Z,7.1
2016-12-18T08:53:47.354Z,7.2
2016-12-18T08:54:53.401Z,7.1
2016-12-18T08:55:59.413Z,7.1
2016-12-18T08:57:05.434Z,7.1
2016-12-18T08:58:11.457Z,7.1
2016-12-18T08:59:17.476Z,7.1
2016-12-18T09:00:23.499Z,7.1
2016-12-18T09:01:29.524Z,7.1
2016-12-18T09:02:35.541Z,7.2
2016-12-18T09:03:41.557Z,7.2
2016-12-18T09:04:47.614Z,7.2
2016-12-18T09:05:52.882Z,7.2
2016-12-18T09:06:58.898Z,7.2
2016-12-18T09:08:04.917Z,7.2
2016-12-18T09:09:10.946Z,7.2
2016-12-18T09:10:16.958Z,7.1
2016-12-18T09:11:22.977Z,7
2016-12-18T09:12:29.001Z,7.1
2016-12-18T09:13:35.027Z,7.1
2016-12-18T09:14:41.037Z,7.2
2016-12-18T09:15:47.057Z,7.3
2016-12-18T09:16:53.082Z,7.3
2016-12-18T09:17:59.108Z,7.3
2016-12-18T09:19:05.125Z,7.3
2016-12-18T09:20:11.137Z,7.3
2016-12-18T09:21:17.164Z,7.3
2016-12-18T09:22:23.233Z,7.3
2016-12-18T09:23:29.246Z,7.2
2016-12-18T09:24:35.258Z,7.2
2016-12-18T09:25:41.291Z,7.2
2016-12-18T09:26:46.557Z,7.2
2016-12-18T09:27:52.573Z,7.2
2016-12-18T09:28:58.606Z,7.2
2016-12-18T09:30:04.629Z,7.2
2016-12-18T09:31:10.646Z,7.2
2016-12-18T09:32:16.659Z,7.3
2016-12-18T09:33:22.683Z,7.3
2016-12-18T09:34:28.691Z,7.4
2016-12-18T09:35:34.705Z,7.4
2016-12-18T09:36:40.723Z,7.4
2016-12-18T09:37:46.744Z,7.4
2016-12-18T09:38:52.764Z,7.4
2016-12-18T09:39:58.781Z,7.4
2016-12-18T09:41:04.803Z,7.3
2016-12-18T09:42:10.830Z,7.4
2016-12-18T09:43:16.849Z,7.4
2016-12-18T09:44:22.866Z,7.4
2016-12-18T09:45:28.883Z,7.4
2016-12-18T09:46:34.907Z,7.4
2016-12-18T09:47:40.934Z,7.4
2016-12-18T09:48:46.954Z,7.5
2016-12-18T09:49:52.973Z,7.5
2016-12-18T09:50:58.996Z,7.7
2016-12-18T09:52:05.017Z,7.5
2016-12-18T09:53:11.033Z,7.6
2016-12-18T09:54:17.051Z,7.6
2016-12-18T09:55:23.074Z,7.5
2016-12-18T09:56:29.095Z,7.5
2016-12-18T09:57:35.119Z,7.5
2016-12-18T09:58:41.139Z,7.5
2016-12-18T09:59:47.158Z,7.6
2016-12-18T10:00:53.181Z,7.6
2016-12-18T10:01:59.194Z,7.5
2016-12-18T10:03:05.211Z,7.4
2016-12-18T10:04:11.231Z,7.4
2016-12-18T10:05:17.245Z,7.5
2016-12-18T10:06:23.265Z,7.5
2016-12-18T10:07:29.290Z,7.5
2016-12-18T10:08:35.306Z,7.5
2016-12-18T10:09:41.322Z,7.4
2016-12-18T10:10:47.350Z,7.5
2016-12-18T10:11:53.373Z,7.5
2016-12-18T10:12:59.393Z,7.5
2016-12-18T10:14:04.661Z,7.6
2016-12-18T10:15:10.683Z,7.6
2016-12-18T10:16:16.701Z,7.6
2016-12-18T10:17:22.721Z,7.6
2016-12-18T10:18:28.736Z,7.6
2016-12-18T10:19:34.755Z,7.6
2016-12-18T10:20:40.781Z,7.4
2016-12-18T10:21:46.803Z,7.6
2016-12-18T10:22:52.818Z,7.6
2016-12-18T10:23:58.834Z,7.6
2016-12-18T10:25:04.860Z,7.6
2016-12-18T10:26:10.879Z,7.7
2016-12-18T10:27:16.900Z,7.7
2016-12-18T10:28:22.916Z,7.7
2016-12-18T10:29:28.935Z,7.7
2016-12-18T10:30:34.957Z,7.7
2016-12-18T10:31:40.979Z,7.7
2016-12-18T10:32:47.003Z,7.7
2016-12-18T10:33:53.016Z,7.7
2016-12-18T10:34:59.031Z,7.7
2016-12-18T10:36:05.049Z,7.6
2016-12-18T10:37:11.077Z,7.6
2016-12-18T10:38:17.090Z,7.5
2016-12-18T10:39:23.115Z,7.6
2016-12-18T10:40:29.137Z,7.7
2016-12-18T10:41:35.160Z,7.7
2016-12-18T10:42:41.170Z,7.7
2016-12-18T10:43:47.185Z,7.8
2016-12-18T10:44:53.207Z,7.7
2016-12-18T10:45:59.226Z,7.7
2016-12-18T10:47:05.241Z,7.7
2016-12-18T10:48:11.259Z,7.8
2016-12-18T10:49:17.278Z,7.8
2016-12-18T10:50:23.287Z,7.8
2016-12-18T10:51:29.313Z,7.8
2016-12-18T10:52:35.338Z,7.8
2016-12-18T10:53:41.361Z,7.9
2016-12-18T10:54:47.373Z,7.9
2016-12-18T10:55:53.388Z,7.9
2016-12-18T10:56:59.414Z,7.8
2016-12-18T10:58:05.436Z,7.8
2016-12-18T10:59:11.451Z,7.9
2016-12-18T11:00:17.471Z,7.9
2016-12-18T11:01:23.497Z,7.9
2016-12-18T11:02:29.508Z,7.9
2016-12-18T11:03:35.525Z,7.9
2016-12-18T11:04:40.794Z,7.9
2016-12-18T11:05:46.820Z,7.9
2016-12-18T11:06:52.831Z,7.9
2016-12-18T11:07:58.848Z,8
2016-12-18T11:09:04.872Z,8
2016-12-18T11:10:10.898Z,7.9
2016-12-18T11:11:16.912Z,7.9
2016-12-18T11:12:22.932Z,7.9
2016-12-18T11:13:28.953Z,8
2016-12-18T11:14:34.972Z,7.9
2016-12-18T11:15:40.989Z,8
2016-12-18T11:16:47.005Z,8
2016-12-18T11:17:53.024Z,7.9
2016-12-18T11:18:59.049Z,7.9
2016-12-18T11:20:05.066Z,8
2016-12-18T11:21:11.082Z,7.9
2016-12-18T11:22:17.099Z,8
2016-12-18T11:23:23.121Z,8
2016-12-18T11:24:29.141Z,8
2016-12-18T11:25:35.164Z,8
2016-12-18T11:26:41.189Z,8
2016-12-18T11:27:47.209Z,8
2016-12-18T11:28:53.228Z,8
2016-12-18T11:29:59.247Z,7.9
2016-12-18T11:31:05.268Z,8
2016-12-18T11:32:11.289Z,8
2016-12-18T11:33:17.301Z,8
2016-12-18T11:34:23.317Z,8
2016-12-18T11:35:29.340Z,8
2016-12-18T11:36:35.355Z,8
2016-12-18T11:37:41.375Z,8
2016-12-18T11:38:47.393Z,8.1
2016-12-18T11:39:53.413Z,8
2016-12-18T11:40:59.432Z,8
2016-12-18T11:42:05.450Z,8.1
2016-12-18T11:43:11.474Z,8.1
2016-12-18T11:44:17.497Z,8.1
2016-12-18T11:45:23.563Z,8
2016-12-18T11:46:29.577Z,8
2016-12-18T11:47:35.597Z,8
2016-12-18T11:48:41.619Z,8
2016-12-18T11:49:47.636Z,8
2016-12-18T11:50:53.651Z,8
2016-12-18T11:51:59.670Z,8
2016-12-18T11:53:05.684Z,8
2016-12-18T11:54:11.707Z,8
2016-12-18T11:55:17.728Z,8
2016-12-18T11:56:23.742Z,8
2016-12-18T11:57:29.761Z,8
2016-12-18T11:58:35.783Z,8
2016-12-18T11:59:41.804Z,7.9
2016-12-18T12:00:47.824Z,8
2016-12-18T12:01:53.845Z,8
2016-12-18T12:02:59.866Z,8
2016-12-18T12:04:05.889Z,8
2016-12-18T12:05:11.908Z,8
2016-12-18T12:06:17.925Z,8
2016-12-18T12:07:23.945Z,7.9
2016-12-18T12:08:29.964Z,7.9
2016-12-18T12:09:35.990Z,7.9
2016-12-18T12:10:42.010Z,7.9
2016-12-18T12:11:48.027Z,7.9
2016-12-18T12:12:54.050Z,8
2016-12-18T12:14:00.068Z,7.9
2016-12-18T12:15:06.080Z,8
2016-12-18T12:16:12.097Z,8
2016-12-18T12:17:18.125Z,8
2016-12-18T12:18:24.135Z,8.1
2016-12-18T12:19:30.164Z,8.1
2016-12-18T12:20:36.185Z,8.1
2016-12-18T12:21:42.208Z,8.1
2016-12-18T12:22:48.222Z,8
2016-12-18T12:23:54.250Z,8
2016-12-18T12:25:00.265Z,8
2016-12-18T12:26:06.287Z,8.2
2016-12-18T12:27:12.299Z,8.1
2016-12-18T12:28:18.323Z,8.1
2016-12-18T12:29:24.350Z,8
2016-12-18T12:30:30.357Z,7.9
2016-12-18T12:31:36.378Z,7.9
2016-12-18T12:32:42.392Z,7.9
2016-12-18T12:33:48.417Z,7.9
2016-12-18T12:34:54.439Z,8
2016-12-18T12:36:00.462Z,8
2016-12-18T12:37:06.479Z,8
2016-12-18T12:38:12.505Z,8
2016-12-18T12:39:18.524Z,8
2016-12-18T12:40:24.550Z,8
2016-12-18T12:41:30.574Z,8
2016-12-18T12:42:36.582Z,8
2016-12-18T12:43:42.601Z,8
2016-12-18T12:44:48.623Z,8
2016-12-18T12:45:54.642Z,8
2016-12-18T12:47:00.655Z,8
2016-12-18T12:48:06.683Z,8
2016-12-18T12:49:12.706Z,8
2016-12-18T12:50:18.735Z,8
2016-12-18T12:51:24.749Z,8
2016-12-18T12:52:30.789Z,8
2016-12-18T12:53:36.812Z,8
2016-12-18T12:54:42.837Z,8
2016-12-18T12:55:48.856Z,8
2016-12-18T12:56:54.877Z,8
2016-12-18T12:58:00.895Z,8
2016-12-18T12:59:06.918Z,7.9
2016-12-18T13:00:12.947Z,7.9
2016-12-18T13:01:19.092Z,7.9
2016-12-18T13:02:25.076Z,7.9
2016-12-18T13:03:31.096Z,7.9
2016-12-18T13:04:37.118Z,8
2016-12-18T13:05:43.141Z,8
2016-12-18T13:06:49.167Z,8
2016-12-18T13:07:55.192Z,7.9
2016-12-18T13:09:01.205Z,7.9
2016-12-18T13:10:07.237Z,7.9
2016-12-18T13:11:13.255Z,8
2016-12-18T13:12:19.268Z,8
2016-12-18T13:13:25.285Z,8
2016-12-18T13:14:31.307Z,8
2016-12-18T13:15:37.325Z,8
2016-12-18T13:16:42.600Z,8
2016-12-18T13:17:48.613Z,8
2016-12-18T13:18:54.630Z,8
2016-12-18T13:20:00.646Z,7.9
2016-12-18T13:21:06.667Z,7.9
2016-12-18T13:22:12.689Z,7.9
2016-12-18T13:23:18.712Z,7.9
2016-12-18T13:24:24.731Z,7.8
2016-12-18T13:25:30.750Z,7.9
2016-12-18T13:26:36.770Z,7.9
2016-12-18T13:27:42.792Z,7.9
2016-12-18T13:28:48.810Z,7.9
2016-12-18T13:29:54.836Z,7.8
2016-12-18T13:31:00.862Z,7.8
2016-12-18T13:32:06.882Z,7.8
2016-12-18T13:33:12.900Z,7.8
2016-12-18T13:34:18.919Z,7.8
2016-12-18T13:35:24.939Z,7.8
2016-12-18T13:36:30.960Z,7.7
2016-12-18T13:37:36.977Z,7.8
2016-12-18T13:38:42.995Z,7.8
2016-12-18T13:39:49.014Z,7.8
2016-12-18T13:40:55.038Z,7.8
2016-12-18T13:42:01.067Z,7.8
2016-12-18T13:43:07.083Z,7.8
2016-12-18T13:44:13.096Z,7.7
2016-12-18T13:45:19.121Z,7.8
2016-12-18T13:46:25.131Z,7.8
2016-12-18T13:47:31.160Z,7.8
2016-12-18T13:48:37.179Z,7.7
2016-12-18T13:49:43.203Z,7.7
2016-12-18T13:50:49.212Z,7.7
2016-12-18T13:51:55.245Z,7.7
2016-12-18T13:53:01.260Z,7.7
2016-12-18T13:54:07.266Z,7.8
2016-12-18T13:55:13.282Z,7.8
2016-12-18T13:56:19.312Z,7.8
2016-12-18T13:57:25.327Z,7.8
2016-12-18T13:58:31.345Z,7.8
2016-12-18T13:59:37.364Z,7.8
2016-12-18T14:00:43.390Z,7.7
2016-12-18T14:01:49.407Z,7.8
2016-12-18T14:02:55.429Z,7.8
2016-12-18T14:04:01.453Z,7.7
2016-12-18T14:05:06.726Z,7.7
2016-12-18T14:06:12.749Z,7.7
2016-12-18T14:07:18.766Z,7.8
2016-12-18T14:08:24.794Z,7.8
2016-12-18T14:09:30.818Z,7.7
2016-12-18T14:10:36.837Z,7.7
2016-12-18T14:11:42.867Z,7.7
2016-12-18T14:12:48.881Z,7.6
2016-12-18T14:13:54.905Z,7.7
2016-12-18T14:15:00.920Z,7.7
2016-12-18T14:16:06.942Z,7.6
2016-12-18T14:17:12.964Z,7.6
2016-12-18T14:18:18.986Z,7.6
2016-12-18T14:19:24.998Z,7.7
2016-12-18T14:20:31.018Z,7.6
2016-12-18T14:21:37.038Z,7.6
2016-12-18T14:22:43.057Z,7.6
2016-12-18T14:23:49.069Z,7.6
2016-12-18T14:24:55.098Z,7.6
2016-12-18T14:26:01.116Z,7.6
2016-12-18T14:27:07.139Z,7.6
2016-12-18T14:28:13.166Z,7.6
2016-12-18T14:29:19.187Z,7.5
2016-12-18T14:30:25.200Z,7.5
2016-12-18T14:31:31.218Z,7.5
2016-12-18T14:32:37.235Z,7.5
2016-12-18T14:33:43.255Z,7.5
2016-12-18T14:34:49.271Z,7.6
2016-12-18T14:35:55.296Z,7.6
2016-12-18T14:37:01.313Z,7.6
2016-12-18T14:38:07.331Z,7.6
2016-12-18T14:39:13.348Z,7.5
2016-12-18T14:40:19.367Z,7.5
2016-12-18T14:41:25.382Z,7.5
2016-12-18T14:42:31.404Z,7.5
2016-12-18T14:43:37.424Z,7.4
2016-12-18T14:44:43.439Z,7.4
2016-12-18T14:45:49.463Z,7.5
2016-12-18T14:46:55.487Z,7.5
2016-12-18T14:48:01.500Z,7.5
2016-12-18T14:49:07.516Z,7.4
2016-12-18T14:50:13.538Z,7.4
2016-12-18T14:51:19.561Z,7.3
2016-12-18T14:52:25.578Z,7.4
2016-12-18T14:53:31.596Z,7.5
2016-12-18T14:54:37.622Z,7.5
2016-12-18T14:55:43.642Z,7.5
2016-12-18T14:56:49.659Z,7.5
2016-12-18T14:57:55.684Z,7.4
2016-12-18T14:59:01.702Z,7.5
2016-12-18T15:00:07.727Z,7.5
2016-12-18T15:01:13.739Z,7.5
2016-12-18T15:02:19.766Z,7.5
2016-12-18T15:03:25.792Z,7.5
2016-12-18T15:04:31.812Z,7.4
2016-12-18T15:05:37.823Z,7.5
2016-12-18T15:06:43.854Z,7.5
2016-12-18T15:07:49.868Z,7.5
2016-12-18T15:08:55.885Z,7.6
2016-12-18T15:10:01.901Z,7.6
2016-12-18T15:11:07.920Z,7.6
2016-12-18T15:12:13.944Z,7.6
2016-12-18T15:13:19.963Z,7.6
2016-12-18T15:14:25.983Z,7.6
2016-12-18T15:15:32.003Z,7.6
2016-12-18T15:16:38.026Z,7.5
2016-12-18T15:17:44.043Z,7.5
2016-12-18T15:18:50.064Z,7.5